Terminal Aerodrome Forecast
Issued by NWS Shreveport, LA

Home | Current Version | Previous Version | Text Only | Print | Product List | Glossary On
Versions: 1 2 3 4 5 6 7 8 9 10 11 12 13 14 15
428
FTUS44 KSHV 081120
TAFELD
TAF
KELD 081120Z 0812/0912 29008KT P6SM SKC
     FM081500 30012G18KT P6SM SKC
     FM081700 30017G25KT P6SM SKC
     FM090000 28009KT P6SM SCT250
     FM090400 27006KT P6SM SCT250=

USA.gov is the U.S. government's official web portal to all federal, state and local government web resources and services.